Yuzanmaru — JD2427 — position and weather

sailwx.info

Track history (hours):
 
Tides and Currents Weather Stations Pressure Air Temp Water Temp Dewpoint Dewpoint Depression Visibility Wind Speed Wind Dir Waves Ship Positions

Yuzanmaru

Last reported at 2018-Feb-18 05:17 UTC. Time now 2018-Feb-19 08:06 UTC.
Position N 33°49' E 134°49'.

Length 74 m; draft 5.2 m.

Type: Cargo ship. MMSI: 431000189.

Date/timePositionNaut miles runAvg speedWind from/ knotsBaromVisibWave heightAir tempDewpointWater temp
2018-Feb-18 05:17N 33°49' E 134°49'512.8
2018-Feb-18 04:53N 33°53' E 134°52'512.8
2018-Feb-18 04:30N 33°57' E 134°55'612.9
2018-Feb-18 04:00N 34°03' E 134°58'713.0
2018-Feb-18 03:30N 34°09' E 135°02'612.5
2018-Feb-18 03:00N 34°14' E 135°05'2 4.6
2018-Feb-18 02:30N 34°14' E 135°08'0 0.0
2018-Feb-18 02:00N 34°14' E 135°08'0 0.0
2018-Feb-18 01:30N 34°14' E 135°08'0 0.0
2018-Feb-18 01:00N 34°14' E 135°08'0 0.0
2018-Feb-18 00:30N 34°14' E 135°08'0 0.0
2018-Feb-18 00:00N 34°14' E 135°08'0 0.0
2018-Feb-17 23:30N 34°14' E 135°08'0 0.0
2018-Feb-17 23:00N 34°14' E 135°08'0 0.0
2018-Feb-17 22:30N 34°14' E 135°08'0 0.0
2018-Feb-17 22:00N 34°14' E 135°08'0 0.0
2018-Feb-17 21:30N 34°14' E 135°08'0 0.0
2018-Feb-17 21:00N 34°14' E 135°08'0 0.0
2018-Feb-17 20:30N 34°14' E 135°08'0 0.0
2018-Feb-17 20:00N 34°14' E 135°08'0 0.0
2018-Feb-17 19:30N 34°14' E 135°08'0 0.0
2018-Feb-17 19:01N 34°14' E 135°08'0 0.0
2018-Feb-17 18:31N 34°14' E 135°08'0 0.0
2018-Feb-17 18:00N 34°14' E 135°08'0 0.0
2018-Feb-17 17:30N 34°14' E 135°08'0 0.0
2018-Feb-17 17:01N 34°14' E 135°08'0 0.0
2018-Feb-17 16:31N 34°14' E 135°08'0 0.0
2018-Feb-17 16:00N 34°14' E 135°08'0 0.0
2018-Feb-17 15:30N 34°14' E 135°08'0 0.0
2018-Feb-17 15:00N 34°14' E 135°08'0 0.0
2018-Feb-17 14:30N 34°14' E 135°08'0 0.0
2018-Feb-17 14:00N 34°14' E 135°08'0 0.0
2018-Feb-17 13:30N 34°14' E 135°08'1 2.6
2018-Feb-17 13:00N 34°14' E 135°06'5 9.4
2018-Feb-17 12:30N 34°11' E 135°03'510.4
2018-Feb-17 12:00N 34°06' E 135°00'510.4
2018-Feb-17 11:30N 34°01' E 134°57'5 9.9
2018-Feb-17 11:00N 33°57' E 134°55'510.1
2018-Feb-17 10:29N 33°52' E 134°52'610.2
2018-Feb-17 09:54N 33°47' E 134°48'8 0.4
2018-Feb-16 16:09N 33°53' E 134°53'212.6
2018-Feb-16 16:00N 33°55' E 134°54'612.7
2018-Feb-16 15:30N 34°01' E 134°57'612.7
2018-Feb-16 15:00N 34°06' E 135°01'612.7
2018-Feb-16 14:30N 34°12' E 135°04'3 6.8
2018-Feb-16 14:00N 34°14' E 135°08'0 0.5
2018-Feb-16 13:30N 34°14' E 135°08'0 0.0
2018-Feb-16 13:00N 34°14' E 135°08'0 0.0
2018-Feb-16 12:30N 34°14' E 135°08'0 0.0
2018-Feb-16 12:01N 34°14' E 135°08'0 0.0
2018-Feb-16 11:30N 34°14' E 135°08'0 0.0
2018-Feb-16 11:00N 34°14' E 135°08'0 0.0
2018-Feb-16 10:30N 34°14' E 135°08'0 0.0
2018-Feb-16 10:01N 34°14' E 135°08'0 0.0
2018-Feb-16 09:31N 34°14' E 135°08'0 0.0
2018-Feb-16 09:00N 34°14' E 135°08'0 0.0
2018-Feb-16 08:30N 34°14' E 135°08'0 0.0
2018-Feb-16 08:01N 34°14' E 135°08'0 0.0
2018-Feb-16 07:30N 34°14' E 135°08'0 0.0
2018-Feb-16 07:00N 34°14' E 135°08'0 0.0
2018-Feb-16 06:30N 34°14' E 135°08'0 0.0
2018-Feb-16 06:00N 34°14' E 135°08'0 0.0
2018-Feb-16 05:30N 34°14' E 135°08'0 0.0
2018-Feb-16 05:00N 34°14' E 135°08'0 0.0
2018-Feb-16 04:30N 34°14' E 135°08'0 0.0
2018-Feb-16 04:00N 34°14' E 135°08'0 0.0
2018-Feb-16 03:30N 34°14' E 135°08'0 0.0
2018-Feb-16 03:00N 34°14' E 135°08'0 0.0
2018-Feb-16 02:30N 34°14' E 135°08'1 1.1
2018-Feb-16 02:00N 34°14' E 135°07'1 2.2
2018-Feb-16 01:30N 34°15' E 135°06'0 0.0
2018-Feb-16 01:00N 34°15' E 135°06'0 0.0
2018-Feb-16 00:31N 34°15' E 135°06'0 0.0
2018-Feb-16 00:00N 34°15' E 135°06'0 0.0
2018-Feb-15 23:30N 34°15' E 135°06'0 0.0
2018-Feb-15 23:00N 34°15' E 135°06'0 0.0
2018-Feb-15 22:30N 34°15' E 135°06'0 0.0
2018-Feb-15 22:00N 34°15' E 135°06'0 0.0
2018-Feb-15 21:30N 34°15' E 135°06'0 0.0
2018-Feb-15 21:01N 34°15' E 135°06'0 0.0
2018-Feb-15 20:30N 34°15' E 135°06'0 0.0
2018-Feb-15 20:00N 34°15' E 135°06'0 0.0
2018-Feb-15 19:30N 34°15' E 135°06'0 0.0
2018-Feb-15 19:00N 34°15' E 135°06'0 0.0
2018-Feb-15 18:31N 34°15' E 135°06'0 0.0
2018-Feb-15 18:00N 34°15' E 135°06'0 0.0
2018-Feb-15 17:30N 34°15' E 135°06'0 0.0
2018-Feb-15 17:01N 34°15' E 135°06'0 0.1
2018-Feb-15 16:30N 34°15' E 135°06'0 0.0
2018-Feb-15 16:00N 34°15' E 135°06'3 6.6
2018-Feb-15 15:30N 34°12' E 135°04'510.3
2018-Feb-15 15:00N 34°07' E 135°01'510.4
2018-Feb-15 14:30N 34°03' E 134°58'510.5
2018-Feb-15 14:00N 33°58' E 134°55'13 0.5
2018-Feb-14 12:14N 33°47' E 134°47'312.6
2018-Feb-14 11:59N 33°49' E 134°49'712.2
2018-Feb-14 11:24N 33°55' E 134°54'512.2
2018-Feb-14 10:58N 33°60' E 134°57'612.0
2018-Feb-14 10:30N 34°05' E 134°60'612.2
2018-Feb-14 10:01N 34°10' E 135°03'510.0
2018-Feb-14 09:30N 34°14' E 135°06'1 2.4
2018-Feb-14 09:00N 34°14' E 135°08'0 0.0
2018-Feb-14 08:30N 34°14' E 135°08'0 0.0
2018-Feb-14 08:00N 34°14' E 135°08'0 0.0
2018-Feb-14 07:30N 34°14' E 135°08'0 0.0
2018-Feb-14 07:00N 34°14' E 135°08'0 0.0
2018-Feb-14 06:30N 34°14' E 135°08'0 0.0
2018-Feb-14 06:00N 34°14' E 135°08'0 0.0
2018-Feb-14 05:30N 34°14' E 135°08'0 0.0
2018-Feb-14 05:00N 34°14' E 135°08'0 0.0
2018-Feb-14 04:30N 34°14' E 135°08'0 0.0
2018-Feb-14 04:00N 34°14' E 135°08'0 0.0
2018-Feb-14 03:29N 34°14' E 135°08'0 0.0
2018-Feb-14 03:00N 34°14' E 135°08'0 0.0
2018-Feb-14 02:29N 34°14' E 135°08'0 0.0
2018-Feb-14 02:00N 34°14' E 135°08'0 0.0
2018-Feb-14 01:30N 34°14' E 135°08'0 0.0
2018-Feb-14 01:00N 34°14' E 135°08'0 0.0
2018-Feb-14 00:30N 34°14' E 135°08'0 0.0
2018-Feb-14 00:00N 34°14' E 135°08'0 0.0
2018-Feb-13 23:30N 34°14' E 135°08'0 0.0
2018-Feb-13 23:01N 34°14' E 135°08'0 0.0
2018-Feb-13 22:30N 34°14' E 135°08'0 0.0
2018-Feb-13 22:00N 34°14' E 135°08'0 0.0
2018-Feb-13 21:30N 34°14' E 135°08'1 2.3
2018-Feb-13 21:00N 34°14' E 135°06'0 0.6
2018-Feb-13 20:31N 34°15' E 135°06'0 0.0
2018-Feb-13 20:00N 34°15' E 135°06'0 0.0
2018-Feb-13 19:31N 34°15' E 135°06'0 0.0
2018-Feb-13 19:00N 34°15' E 135°06'0 0.0
2018-Feb-13 18:30N 34°15' E 135°06'0 0.0
2018-Feb-13 18:00N 34°15' E 135°06'0 0.0
2018-Feb-13 17:30N 34°15' E 135°06'0 0.0
2018-Feb-13 17:00N 34°15' E 135°06'0 0.0
2018-Feb-13 16:31N 34°15' E 135°06'0 0.2
2018-Feb-13 16:00N 34°15' E 135°06'0 0.0
2018-Feb-13 15:30N 34°15' E 135°06'0 0.0
2018-Feb-13 15:00N 34°15' E 135°06'0 0.0
2018-Feb-13 14:30N 34°15' E 135°06'0 0.0
2018-Feb-13 14:01N 34°15' E 135°06'0 0.0
2018-Feb-13 13:30N 34°15' E 135°06'0 0.0
2018-Feb-13 13:01N 34°15' E 135°06'0 0.0
2018-Feb-13 12:30N 34°15' E 135°06'0 0.9
2018-Feb-13 12:00N 34°14' E 135°06'5 9.9
2018-Feb-13 11:30N 34°10' E 135°03'510.9
2018-Feb-13 11:00N 34°05' E 134°60'611.1
2018-Feb-13 10:29N 34°00' E 134°57'610.7
2018-Feb-13 09:55N 33°55' E 134°53'7 0.4
2018-Feb-12 13:45N 33°48' E 134°49'412.5
2018-Feb-12 13:25N 33°52' E 134°52'812.6
2018-Feb-12 12:48N 33°59' E 134°55'412.5
2018-Feb-12 12:30N 34°02' E 134°57'612.6
2018-Feb-12 12:01N 34°08' E 135°00'612.1
2018-Feb-12 11:30N 34°13' E 135°04'3 5.9
2018-Feb-12 11:00N 34°14' E 135°08'0 0.2
2018-Feb-12 10:31N 34°14' E 135°08'0 0.0
2018-Feb-12 10:00N 34°14' E 135°08'0 0.0
2018-Feb-12 09:30N 34°14' E 135°08'0 0.0
2018-Feb-12 09:00N 34°14' E 135°08'0 0.0
2018-Feb-12 08:31N 34°14' E 135°08'0 0.0
2018-Feb-12 08:01N 34°14' E 135°08'0 0.0
2018-Feb-12 07:30N 34°14' E 135°08'0 0.0
2018-Feb-12 07:01N 34°14' E 135°08'0 0.0
2018-Feb-12 06:30N 34°14' E 135°08'0 0.0
2018-Feb-12 06:00N 34°14' E 135°08'0 0.0
2018-Feb-12 05:30N 34°14' E 135°08'0 0.0
2018-Feb-12 05:00N 34°14' E 135°08'0 0.0
2018-Feb-12 04:30N 34°14' E 135°08'0 0.0
2018-Feb-12 04:00N 34°14' E 135°08'0 0.0
2018-Feb-12 03:30N 34°14' E 135°08'0 0.0
2018-Feb-12 03:00N 34°14' E 135°08'0 0.0
2018-Feb-12 02:30N 34°14' E 135°08'0 0.0
2018-Feb-12 02:00N 34°14' E 135°08'0 0.0
2018-Feb-12 01:30N 34°14' E 135°08'0 0.0
2018-Feb-12 01:00N 34°14' E 135°08'0 0.0
2018-Feb-12 00:28N 34°14' E 135°08'0 0.0
2018-Feb-12 00:00N 34°14' E 135°08'0 0.0
2018-Feb-11 23:30N 34°14' E 135°08'0 0.0
2018-Feb-11 23:00N 34°14' E 135°08'2 3.5
2018-Feb-11 22:31N 34°15' E 135°06'0 0.5
2018-Feb-11 22:00N 34°15' E 135°06'0 0.0
2018-Feb-11 21:30N 34°15' E 135°06'0 0.0
2018-Feb-11 21:00N 34°15' E 135°06'0 0.0
2018-Feb-11 20:31N 34°15' E 135°06'0 0.0
2018-Feb-11 20:00N 34°15' E 135°06'0 0.0
2018-Feb-11 19:30N 34°15' E 135°06'0 0.0
2018-Feb-11 19:00N 34°15' E 135°06'0 0.0
2018-Feb-11 18:30N 34°15' E 135°06'0 0.1
2018-Feb-11 18:01N 34°15' E 135°06'0 0.0
2018-Feb-11 17:31N 34°15' E 135°06'0 0.0
2018-Feb-11 17:00N 34°15' E 135°06'0 0.0
2018-Feb-11 16:30N 34°15' E 135°06'0 0.0
2018-Feb-11 16:01N 34°15' E 135°06'0 0.1
2018-Feb-11 15:31N 34°15' E 135°06'0 0.0
2018-Feb-11 15:00N 34°15' E 135°06'0 0.1
2018-Feb-11 14:30N 34°15' E 135°06'0 0.1
2018-Feb-11 14:00N 34°15' E 135°06'0 0.2
2018-Feb-11 13:30N 34°15' E 135°05'4 8.4
2018-Feb-11 13:00N 34°11' E 135°03'510.6
2018-Feb-11 12:30N 34°06' E 135°01'510.3
2018-Feb-11 12:00N 34°01' E 134°58'610.1
2018-Feb-11 11:27N 33°57' E 134°55'910.3
2018-Feb-11 10:36N 33°49' E 134°49'0 0.0
2018-Feb-10 11:59N 33°49' E 134°50'511.0
2018-Feb-10 11:30N 33°54' E 134°53'510.8
2018-Feb-10 11:00N 33°58' E 134°56'611.1
2018-Feb-10 10:30N 34°03' E 134°59'611.6
2018-Feb-10 10:01N 34°09' E 135°02'611.5
2018-Feb-10 09:30N 34°14' E 135°05'2 4.7
2018-Feb-10 09:00N 34°14' E 135°08'0 0.0
2018-Feb-10 08:30N 34°14' E 135°08'0 0.0
2018-Feb-10 08:00N 34°14' E 135°08'0 0.0
2018-Feb-10 07:31N 34°14' E 135°08'0 0.0
2018-Feb-10 07:01N 34°14' E 135°08'0 0.0
2018-Feb-10 06:30N 34°14' E 135°08'0 0.0
2018-Feb-10 06:00N 34°14' E 135°08'0 0.0
2018-Feb-10 05:30N 34°14' E 135°08'0 0.0
2018-Feb-10 05:00N 34°14' E 135°08'0 0.0
2018-Feb-10 04:30N 34°14' E 135°08'0 0.0
2018-Feb-10 04:00N 34°14' E 135°08'0 0.0
2018-Feb-10 03:30N 34°14' E 135°08'0 0.0
2018-Feb-10 03:00N 34°14' E 135°08'0 0.0
2018-Feb-10 02:31N 34°14' E 135°08'0 0.0
2018-Feb-10 02:00N 34°14' E 135°08'0 0.0
2018-Feb-10 01:30N 34°14' E 135°08'0 0.0
2018-Feb-10 01:00N 34°14' E 135°08'0 0.0
2018-Feb-10 00:30N 34°14' E 135°08'0 0.0
2018-Feb-10 00:00N 34°14' E 135°08'0 0.0
2018-Feb-09 23:30N 34°14' E 135°08'0 0.0
2018-Feb-09 23:00N 34°14' E 135°08'0 0.0
2018-Feb-09 22:46N 34°14' E 135°08'0 0.0
2018-Feb-09 22:30N 34°14' E 135°08'0 0.0
2018-Feb-09 22:00N 34°14' E 135°08'3 5.1
2018-Feb-09 21:31N 34°14' E 135°05'3 5.7
2018-Feb-09 21:01N 34°11' E 135°03'  
Track history (hours):
 
Tides and Currents Weather Stations Pressure Air Temp Water Temp Dewpoint Dewpoint Depression Visibility Wind Speed Wind Dir Waves Ship Positions

Yuzanmaru

Last reported at 2018-Feb-18 05:17 UTC. Time now 2018-Feb-19 08:06 UTC.
Position N 33°49' E 134°49'.

Length 74 m; draft 5.2 m.

Type: Cargo ship. MMSI: 431000189.

Date/timePositionNaut miles runAvg speedWind from/ knotsBaromVisibWave heightAir tempDewpointWater temp
2018-Feb-18 05:17N 33°49' E 134°49'512.8
2018-Feb-18 04:53N 33°53' E 134°52'512.8
2018-Feb-18 04:30N 33°57' E 134°55'612.9
2018-Feb-18 04:00N 34°03' E 134°58'713.0
2018-Feb-18 03:30N 34°09' E 135°02'612.5
2018-Feb-18 03:00N 34°14' E 135°05'2 4.6
2018-Feb-18 02:30N 34°14' E 135°08'0 0.0
2018-Feb-18 02:00N 34°14' E 135°08'0 0.0
2018-Feb-18 01:30N 34°14' E 135°08'0 0.0
2018-Feb-18 01:00N 34°14' E 135°08'0 0.0
2018-Feb-18 00:30N 34°14' E 135°08'0 0.0
2018-Feb-18 00:00N 34°14' E 135°08'0 0.0
2018-Feb-17 23:30N 34°14' E 135°08'0 0.0
2018-Feb-17 23:00N 34°14' E 135°08'0 0.0
2018-Feb-17 22:30N 34°14' E 135°08'0 0.0
2018-Feb-17 22:00N 34°14' E 135°08'0 0.0
2018-Feb-17 21:30N 34°14' E 135°08'0 0.0
2018-Feb-17 21:00N 34°14' E 135°08'0 0.0
2018-Feb-17 20:30N 34°14' E 135°08'0 0.0
2018-Feb-17 20:00N 34°14' E 135°08'0 0.0
2018-Feb-17 19:30N 34°14' E 135°08'0 0.0
2018-Feb-17 19:01N 34°14' E 135°08'0 0.0
2018-Feb-17 18:31N 34°14' E 135°08'0 0.0
2018-Feb-17 18:00N 34°14' E 135°08'0 0.0
2018-Feb-17 17:30N 34°14' E 135°08'0 0.0
2018-Feb-17 17:01N 34°14' E 135°08'0 0.0
2018-Feb-17 16:31N 34°14' E 135°08'0 0.0
2018-Feb-17 16:00N 34°14' E 135°08'0 0.0
2018-Feb-17 15:30N 34°14' E 135°08'0 0.0
2018-Feb-17 15:00N 34°14' E 135°08'0 0.0
2018-Feb-17 14:30N 34°14' E 135°08'0 0.0
2018-Feb-17 14:00N 34°14' E 135°08'0 0.0
2018-Feb-17 13:30N 34°14' E 135°08'1 2.6
2018-Feb-17 13:00N 34°14' E 135°06'5 9.4
2018-Feb-17 12:30N 34°11' E 135°03'510.4
2018-Feb-17 12:00N 34°06' E 135°00'510.4
2018-Feb-17 11:30N 34°01' E 134°57'5 9.9
2018-Feb-17 11:00N 33°57' E 134°55'510.1
2018-Feb-17 10:29N 33°52' E 134°52'610.2
2018-Feb-17 09:54N 33°47' E 134°48'8 0.4
2018-Feb-16 16:09N 33°53' E 134°53'212.6
2018-Feb-16 16:00N 33°55' E 134°54'612.7
2018-Feb-16 15:30N 34°01' E 134°57'612.7
2018-Feb-16 15:00N 34°06' E 135°01'612.7
2018-Feb-16 14:30N 34°12' E 135°04'3 6.8
2018-Feb-16 14:00N 34°14' E 135°08'0 0.5
2018-Feb-16 13:30N 34°14' E 135°08'0 0.0
2018-Feb-16 13:00N 34°14' E 135°08'0 0.0
2018-Feb-16 12:30N 34°14' E 135°08'0 0.0
2018-Feb-16 12:01N 34°14' E 135°08'0 0.0
2018-Feb-16 11:30N 34°14' E 135°08'0 0.0
2018-Feb-16 11:00N 34°14' E 135°08'0 0.0
2018-Feb-16 10:30N 34°14' E 135°08'0 0.0
2018-Feb-16 10:01N 34°14' E 135°08'0 0.0
2018-Feb-16 09:31N 34°14' E 135°08'0 0.0
2018-Feb-16 09:00N 34°14' E 135°08'0 0.0
2018-Feb-16 08:30N 34°14' E 135°08'0 0.0
2018-Feb-16 08:01N 34°14' E 135°08'0 0.0
2018-Feb-16 07:30N 34°14' E 135°08'0 0.0
2018-Feb-16 07:00N 34°14' E 135°08'0 0.0
2018-Feb-16 06:30N 34°14' E 135°08'0 0.0
2018-Feb-16 06:00N 34°14' E 135°08'0 0.0
2018-Feb-16 05:30N 34°14' E 135°08'0 0.0
2018-Feb-16 05:00N 34°14' E 135°08'0 0.0
2018-Feb-16 04:30N 34°14' E 135°08'0 0.0
2018-Feb-16 04:00N 34°14' E 135°08'0 0.0
2018-Feb-16 03:30N 34°14' E 135°08'0 0.0
2018-Feb-16 03:00N 34°14' E 135°08'0 0.0
2018-Feb-16 02:30N 34°14' E 135°08'1 1.1
2018-Feb-16 02:00N 34°14' E 135°07'1 2.2
2018-Feb-16 01:30N 34°15' E 135°06'0 0.0
2018-Feb-16 01:00N 34°15' E 135°06'0 0.0
2018-Feb-16 00:31N 34°15' E 135°06'0 0.0
2018-Feb-16 00:00N 34°15' E 135°06'0 0.0
2018-Feb-15 23:30N 34°15' E 135°06'0 0.0
2018-Feb-15 23:00N 34°15' E 135°06'0 0.0
2018-Feb-15 22:30N 34°15' E 135°06'0 0.0
2018-Feb-15 22:00N 34°15' E 135°06'0 0.0
2018-Feb-15 21:30N 34°15' E 135°06'0 0.0
2018-Feb-15 21:01N 34°15' E 135°06'0 0.0
2018-Feb-15 20:30N 34°15' E 135°06'0 0.0
2018-Feb-15 20:00N 34°15' E 135°06'0 0.0
2018-Feb-15 19:30N 34°15' E 135°06'0 0.0
2018-Feb-15 19:00N 34°15' E 135°06'0 0.0
2018-Feb-15 18:31N 34°15' E 135°06'0 0.0
2018-Feb-15 18:00N 34°15' E 135°06'0 0.0
2018-Feb-15 17:30N 34°15' E 135°06'0 0.0
2018-Feb-15 17:01N 34°15' E 135°06'0 0.1
2018-Feb-15 16:30N 34°15' E 135°06'0 0.0
2018-Feb-15 16:00N 34°15' E 135°06'3 6.6
2018-Feb-15 15:30N 34°12' E 135°04'510.3
2018-Feb-15 15:00N 34°07' E 135°01'510.4
2018-Feb-15 14:30N 34°03' E 134°58'510.5
2018-Feb-15 14:00N 33°58' E 134°55'13 0.5
2018-Feb-14 12:14N 33°47' E 134°47'312.6
2018-Feb-14 11:59N 33°49' E 134°49'712.2
2018-Feb-14 11:24N 33°55' E 134°54'512.2
2018-Feb-14 10:58N 33°60' E 134°57'612.0
2018-Feb-14 10:30N 34°05' E 134°60'612.2
2018-Feb-14 10:01N 34°10' E 135°03'510.0
2018-Feb-14 09:30N 34°14' E 135°06'1 2.4
2018-Feb-14 09:00N 34°14' E 135°08'0 0.0
2018-Feb-14 08:30N 34°14' E 135°08'0 0.0
2018-Feb-14 08:00N 34°14' E 135°08'0 0.0
2018-Feb-14 07:30N 34°14' E 135°08'0 0.0
2018-Feb-14 07:00N 34°14' E 135°08'0 0.0
2018-Feb-14 06:30N 34°14' E 135°08'0 0.0
2018-Feb-14 06:00N 34°14' E 135°08'0 0.0
2018-Feb-14 05:30N 34°14' E 135°08'0 0.0
2018-Feb-14 05:00N 34°14' E 135°08'0 0.0
2018-Feb-14 04:30N 34°14' E 135°08'0 0.0
2018-Feb-14 04:00N 34°14' E 135°08'0 0.0
2018-Feb-14 03:29N 34°14' E 135°08'0 0.0
2018-Feb-14 03:00N 34°14' E 135°08'0 0.0
2018-Feb-14 02:29N 34°14' E 135°08'0 0.0
2018-Feb-14 02:00N 34°14' E 135°08'0 0.0
2018-Feb-14 01:30N 34°14' E 135°08'0 0.0
2018-Feb-14 01:00N 34°14' E 135°08'0 0.0
2018-Feb-14 00:30N 34°14' E 135°08'0 0.0
2018-Feb-14 00:00N 34°14' E 135°08'0 0.0
2018-Feb-13 23:30N 34°14' E 135°08'0 0.0
2018-Feb-13 23:01N 34°14' E 135°08'0 0.0
2018-Feb-13 22:30N 34°14' E 135°08'0 0.0
2018-Feb-13 22:00N 34°14' E 135°08'0 0.0
2018-Feb-13 21:30N 34°14' E 135°08'1 2.3
2018-Feb-13 21:00N 34°14' E 135°06'0 0.6
2018-Feb-13 20:31N 34°15' E 135°06'0 0.0
2018-Feb-13 20:00N 34°15' E 135°06'0 0.0
2018-Feb-13 19:31N 34°15' E 135°06'0 0.0
2018-Feb-13 19:00N 34°15' E 135°06'0 0.0
2018-Feb-13 18:30N 34°15' E 135°06'0 0.0
2018-Feb-13 18:00N 34°15' E 135°06'0 0.0
2018-Feb-13 17:30N 34°15' E 135°06'0 0.0
2018-Feb-13 17:00N 34°15' E 135°06'0 0.0
2018-Feb-13 16:31N 34°15' E 135°06'0 0.2
2018-Feb-13 16:00N 34°15' E 135°06'0 0.0
2018-Feb-13 15:30N 34°15' E 135°06'0 0.0
2018-Feb-13 15:00N 34°15' E 135°06'0 0.0
2018-Feb-13 14:30N 34°15' E 135°06'0 0.0
2018-Feb-13 14:01N 34°15' E 135°06'0 0.0
2018-Feb-13 13:30N 34°15' E 135°06'0 0.0
2018-Feb-13 13:01N 34°15' E 135°06'0 0.0
2018-Feb-13 12:30N 34°15' E 135°06'0 0.9
2018-Feb-13 12:00N 34°14' E 135°06'5 9.9
2018-Feb-13 11:30N 34°10' E 135°03'510.9
2018-Feb-13 11:00N 34°05' E 134°60'611.1
2018-Feb-13 10:29N 34°00' E 134°57'610.7
2018-Feb-13 09:55N 33°55' E 134°53'7 0.4
2018-Feb-12 13:45N 33°48' E 134°49'412.5
2018-Feb-12 13:25N 33°52' E 134°52'812.6
2018-Feb-12 12:48N 33°59' E 134°55'412.5
2018-Feb-12 12:30N 34°02' E 134°57'612.6
2018-Feb-12 12:01N 34°08' E 135°00'612.1
2018-Feb-12 11:30N 34°13' E 135°04'3 5.9
2018-Feb-12 11:00N 34°14' E 135°08'0 0.2
2018-Feb-12 10:31N 34°14' E 135°08'0 0.0
2018-Feb-12 10:00N 34°14' E 135°08'0 0.0
2018-Feb-12 09:30N 34°14' E 135°08'0 0.0
2018-Feb-12 09:00N 34°14' E 135°08'0 0.0
2018-Feb-12 08:31N 34°14' E 135°08'0 0.0
2018-Feb-12 08:01N 34°14' E 135°08'0 0.0
2018-Feb-12 07:30N 34°14' E 135°08'0 0.0
2018-Feb-12 07:01N 34°14' E 135°08'0 0.0
2018-Feb-12 06:30N 34°14' E 135°08'0 0.0
2018-Feb-12 06:00N 34°14' E 135°08'0 0.0
2018-Feb-12 05:30N 34°14' E 135°08'0 0.0
2018-Feb-12 05:00N 34°14' E 135°08'0 0.0
2018-Feb-12 04:30N 34°14' E 135°08'0 0.0
2018-Feb-12 04:00N 34°14' E 135°08'0 0.0
2018-Feb-12 03:30N 34°14' E 135°08'0 0.0
2018-Feb-12 03:00N 34°14' E 135°08'0 0.0
2018-Feb-12 02:30N 34°14' E 135°08'0 0.0
2018-Feb-12 02:00N 34°14' E 135°08'0 0.0
2018-Feb-12 01:30N 34°14' E 135°08'0 0.0
2018-Feb-12 01:00N 34°14' E 135°08'0 0.0
2018-Feb-12 00:28N 34°14' E 135°08'0 0.0
2018-Feb-12 00:00N 34°14' E 135°08'0 0.0
2018-Feb-11 23:30N 34°14' E 135°08'0 0.0
2018-Feb-11 23:00N 34°14' E 135°08'2 3.5
2018-Feb-11 22:31N 34°15' E 135°06'0 0.5
2018-Feb-11 22:00N 34°15' E 135°06'0 0.0
2018-Feb-11 21:30N 34°15' E 135°06'0 0.0
2018-Feb-11 21:00N 34°15' E 135°06'0 0.0
2018-Feb-11 20:31N 34°15' E 135°06'0 0.0
2018-Feb-11 20:00N 34°15' E 135°06'0 0.0
2018-Feb-11 19:30N 34°15' E 135°06'0 0.0
2018-Feb-11 19:00N 34°15' E 135°06'0 0.0
2018-Feb-11 18:30N 34°15' E 135°06'0 0.1
2018-Feb-11 18:01N 34°15' E 135°06'0 0.0
2018-Feb-11 17:31N 34°15' E 135°06'0 0.0
2018-Feb-11 17:00N 34°15' E 135°06'0 0.0
2018-Feb-11 16:30N 34°15' E 135°06'0 0.0
2018-Feb-11 16:01N 34°15' E 135°06'0 0.1
2018-Feb-11 15:31N 34°15' E 135°06'0 0.0
2018-Feb-11 15:00N 34°15' E 135°06'0 0.1
2018-Feb-11 14:30N 34°15' E 135°06'0 0.1
2018-Feb-11 14:00N 34°15' E 135°06'0 0.2
2018-Feb-11 13:30N 34°15' E 135°05'4 8.4
2018-Feb-11 13:00N 34°11' E 135°03'510.6
2018-Feb-11 12:30N 34°06' E 135°01'510.3
2018-Feb-11 12:00N 34°01' E 134°58'610.1
2018-Feb-11 11:27N 33°57' E 134°55'910.3
2018-Feb-11 10:36N 33°49' E 134°49'0 0.0
2018-Feb-10 11:59N 33°49' E 134°50'511.0
2018-Feb-10 11:30N 33°54' E 134°53'510.8
2018-Feb-10 11:00N 33°58' E 134°56'611.1
2018-Feb-10 10:30N 34°03' E 134°59'611.6
2018-Feb-10 10:01N 34°09' E 135°02'611.5
2018-Feb-10 09:30N 34°14' E 135°05'2 4.7
2018-Feb-10 09:00N 34°14' E 135°08'0 0.0
2018-Feb-10 08:30N 34°14' E 135°08'0 0.0
2018-Feb-10 08:00N 34°14' E 135°08'0 0.0
2018-Feb-10 07:31N 34°14' E 135°08'0 0.0
2018-Feb-10 07:01N 34°14' E 135°08'0 0.0
2018-Feb-10 06:30N 34°14' E 135°08'0 0.0
2018-Feb-10 06:00N 34°14' E 135°08'0 0.0
2018-Feb-10 05:30N 34°14' E 135°08'0 0.0
2018-Feb-10 05:00N 34°14' E 135°08'0 0.0
2018-Feb-10 04:30N 34°14' E 135°08'0 0.0
2018-Feb-10 04:00N 34°14' E 135°08'0 0.0
2018-Feb-10 03:30N 34°14' E 135°08'0 0.0
2018-Feb-10 03:00N 34°14' E 135°08'0 0.0
2018-Feb-10 02:31N 34°14' E 135°08'0 0.0
2018-Feb-10 02:00N 34°14' E 135°08'0 0.0
2018-Feb-10 01:30N 34°14' E 135°08'0 0.0
2018-Feb-10 01:00N 34°14' E 135°08'0 0.0
2018-Feb-10 00:30N 34°14' E 135°08'0 0.0
2018-Feb-10 00:00N 34°14' E 135°08'0 0.0
2018-Feb-09 23:30N 34°14' E 135°08'0 0.0
2018-Feb-09 23:00N 34°14' E 135°08'0 0.0
2018-Feb-09 22:46N 34°14' E 135°08'0 0.0
2018-Feb-09 22:30N 34°14' E 135°08'0 0.0
2018-Feb-09 22:00N 34°14' E 135°08'3 5.1
2018-Feb-09 21:31N 34°14' E 135°05'3 5.7
2018-Feb-09 21:01N 34°11' E 135°03'  

Dump ship's entire track history